Boulder City, Nevada Weather observations

Data are for observation ending at time listed.
 Day   Time    Ave.   Ave.  Ave.  Vector   Max.   Stn.    Total    Solar   Ave.  
  of    of     Air    Rel.  Wind   Wind    Wind   Baro.  Precip.   Rad.    Soil  
Year   Day     Temp.  Hum.  Speed  Dir.    Gust   Pres.                    Temp. 
2014   (PST)    F      %     mph   deg.    mph     mb.     in.     W/m2     F   
------------------------------------------------------------------------------
 262    4:20   75.5    32    3.1   214      4.2   926.2    0.00       0    89.1
 262    4:30   75.5    32    3.7   223      4.7   926.3    0.00       0    89.0
 262    4:40   75.1    32    2.9   216      3.9   926.4    0.00       0    88.9
 262    4:50   74.6    33    2.6   204      4.1   926.5    0.00       0    88.8
 262    5:00   74.2    33    2.8   207      3.9   926.5    0.00       0    88.7
 262    5:10   74.2    33    2.8   212      4.0   926.6    0.00       0    88.6
 262    5:20   73.8    34    2.7   226      4.2   926.7    0.00       0    88.6
 262    5:30   73.5    35    2.7   220      3.5   926.8    0.00       3    88.5
 262    5:40   73.1    35    2.7   213      3.4   926.9    0.00       8    88.4
 262    5:50   73.3    35    2.8   204      4.2   927.1    0.00      29    88.3
 262    6:00   74.6    34    2.6   210      4.2   927.1    0.00      67    88.2
 262    6:10   75.8    33    2.7   218      4.5   927.3    0.00     104    88.2
 262    6:20   77.3    32    2.7   223      4.2   927.5    0.00     137    88.1
 262    6:30   78.8    31    2.7   220      4.0   927.7    0.00     170    88.0
 262    6:40   79.8    30    2.3   233      3.7   927.9    0.00     203    87.9
 262    6:50   80.5    29    2.7   176      5.0   928.1    0.00     237    87.9
 262    7:00   81.1    29    3.3   178      5.0   928.3    0.00     272    87.8
 262    7:10   82.5    28    2.2   182      4.3   928.5    0.00     305    87.7
 262    7:20   84.4    26    1.1   148      3.4   928.8    0.00     338    87.6
 262    7:30   85.0    25    1.6    25      4.4   929.0    0.00     370    87.6
 262    7:40   84.2    26    2.1    29      4.3   929.2    0.00     404    87.5
 262    7:50   84.2    26    2.6    27      5.8   929.3    0.00     435    87.5
 262    8:00   83.8    26    2.0     9      4.5   929.4    0.00     466    87.5
 262    8:10   85.2    25    1.0     8      2.7   929.6    0.00     495    87.5
 262    8:20   86.0    25    1.3    18      3.6   929.8    0.00     524    87.5
 262    8:30   86.8    24    2.3   119      6.0   929.9    0.00     550    87.6
 262    8:40   88.3    23    2.3   115      6.1   930.1    0.00     575    87.7
 262    8:50   87.4    23    2.9   173      6.7   930.2    0.00     602    87.8
 262    9:00   86.6    24    2.0   204      4.7   930.2    0.00     625    87.9
 262    9:10   88.7    22    2.8   150      6.2   930.2    0.00     648    88.0
 262    9:20   88.8    22    3.0   150      6.6   930.3    0.00     184    88.1
 262    9:30   89.5    22    1.9    69      4.7   930.4    0.00     318    88.3
 262    9:40   88.2    24    2.7    28      8.7   930.4    0.00     703    88.5
 262    9:50   87.8    24    3.7    17      7.2   930.4    0.00     724    88.7
 262   10:00   87.4    24    3.3    13      7.7   930.3    0.00     740    88.9
 262   10:10   88.3    23    2.4    40      5.8   930.3    0.00     733    89.2
 262   10:20   89.1    22    2.2    28      5.6   930.3    0.00     658    89.4
 262   10:30   90.1    20    4.5    79     11.6   930.3    0.00     740    89.7
 262   10:40   92.2    19    3.4   118      9.7   930.3    0.00     787    90.0
 262   10:50   92.2    18    4.9   105     11.9   930.4    0.00     792    90.3
 262   11:00   92.1    18    3.6    98     10.1   930.3    0.00     741    90.6
 262   11:10   92.8    16    5.2   112     11.5   930.2    0.00     813    90.9
 262   11:20   92.7    15    4.0   158     10.3   930.1    0.00     814    91.2
 262   11:30   94.0    14    4.8   154     11.5   930.0    0.00     821    91.5
 262   11:40   93.4    14    5.8   180     13.7   929.9    0.00     816    91.8
 262   11:50   93.7    15    6.3   166     14.1   929.9    0.00     813    92.2
 262   12:00   94.8    14    5.0   171     11.2   929.8    0.00     814    92.5
 262   12:10   94.1    14    6.8   172     14.3   929.7    0.00     808    92.9
 262   12:20   93.9    14    5.7   119     10.4   929.7    0.00     802    93.2
 262   12:30   94.1    14    5.7   152     12.9   929.5    0.00     795    93.5
 262   12:40   94.5    14    4.7   127     11.0   929.4    0.00     784    93.8
 262   12:50   94.8    14    5.8   160     12.0   929.3    0.00     770    94.0
 262   13:00   95.2    13    5.3   144     13.3   929.2    0.00     766    94.3
 262   13:10   96.6    12    5.8   147     14.6   929.1    0.00     749    94.4
 262   13:20   96.7    11    5.2   157     10.6   929.1    0.00     734    94.6
 262   13:30   96.2    12    7.5   176     16.1   929.1    0.00     715    94.7
 262   13:40   96.0    12    6.4   169     12.3   929.0    0.00     695    94.8
 262   13:50   96.1    11    5.8   130     11.9   928.9    0.00     675    94.9
 262   14:00   96.3    10    8.7   173     15.8   928.8    0.00     653    94.9
 262   14:10   96.2    10    7.0   157     16.2   928.8    0.00     631    95.0
 262   14:20   95.9    10    7.6   171     14.3   928.7    0.00     605    95.0
 262   14:30   95.9    10    6.6   161     16.6   928.7    0.00     577    95.0
 262   14:40   96.0    10    5.8   170     14.4   928.6    0.00     551    95.0
 262   14:50   95.7    10    6.2   151     14.2   928.6    0.00     522    95.1
 262   15:00   96.1    10    5.4   134     13.7   928.5    0.00     490    95.1
 262   15:10   96.0    10    5.2   124     12.0   928.5    0.00     460    95.1
 262   15:20   95.5    10    6.2   146     14.7   928.5    0.00     428    95.1
 262   15:30   95.8    10    4.5   144     13.2   928.4    0.00     395    95.0
 262   15:40   96.0    10    5.0   146     10.9   928.4    0.00     362    95.0
 262   15:50   96.2    10    3.4   132      7.7   928.4    0.00     331    95.0
 262   16:00   95.4     9    6.4    95     12.1   928.4    0.00     298    94.9
 262   16:10   95.3    10    4.4   103     10.7   928.4    0.00     265    94.9
 262   16:20   95.0    10    4.5   150     10.7   928.2    0.00     231    94.8
 262   16:30   94.9    10    3.6   109      7.7   928.2    0.00     197    94.8
 262   16:40   94.8    11    4.1   146     10.5   928.1    0.00     165    94.7
 262   16:50   93.6    11    5.6   146     13.3   928.1    0.00     135    94.6
 262   17:00   93.2    12    4.6   157     10.4   928.1    0.00     101    94.6
 262   17:10   91.7    13    5.6   162     10.4   928.1    0.00      64    94.5
 262   17:20   90.9    14    5.5   149     14.8   928.0    0.00      26    94.3
 262   17:30   90.4    14    7.1   178     13.2   928.0    0.00      12    94.2
 262   17:40   90.0    16    5.5   173     10.6   928.0    0.00       7    94.2
 262   17:50   89.7    16    5.2   174      9.1   928.0    0.00       3    94.1
 262   18:00   89.3    17    4.7   170     11.7   928.0    0.00       0    94.0
 262   18:10   88.9    17    4.0   179      6.8   928.1    0.00       0    93.9
 262   18:20   88.5    17    3.4   169      6.9   928.1    0.00       0    93.9
 262   18:30   88.2    18    4.0   178      7.4   928.1    0.00       0    93.8
 262   18:40   87.8    18    4.0   192      6.8   928.1    0.00       0    93.7
 262   18:50   87.5    18    3.6   196      6.2   928.1    0.00       0    93.6
 262   19:00   87.1    18    3.6   186      6.9   928.2    0.00       0    93.5
 262   19:10   86.9    18    3.3   170      6.3   928.3    0.00       0    93.4
 262   19:20   86.7    18    3.9   174      6.1   928.3    0.00       0    93.3
 262   19:30   86.7    18    5.4   184      9.2   928.4    0.00       0    93.3
 262   19:40   86.5    18    4.7   167      8.6   928.5    0.00       0    93.2
 262   19:50   86.3    18    5.0   169      8.2   928.6    0.00       0    93.1
 262   20:00   86.4    18    5.3   174      8.0   928.7    0.00       0    93.0
 262   20:10   85.9    19    4.7   203      8.9   928.7    0.00       0    92.9
 262   20:20   84.5    20    4.5   229      7.2   928.7    0.00       0    92.8
 262   20:30   83.9    20    5.1   222      7.7   928.8    0.00       0    92.7
 262   20:40   83.9    18    6.2   228      8.8   928.8    0.00       0    92.6
 262   20:50   83.8    17    5.6   223      8.2   928.9    0.00       0    92.5
 262   21:00   83.7    17    5.6   229      9.2   928.9    0.00       0    92.4
 262   21:10   83.6    17    4.6   229      6.5   929.0    0.00       0    92.3
 262   21:20   83.6    17    4.0   230      6.1   929.1    0.00       0    92.2
 262   21:30   83.4    17    4.4   224      6.5   929.1    0.00       0    92.1
 262   21:40   83.2    17    4.5   224      6.4   929.0    0.00       0    92.0
 262   21:50   83.1    17    4.7   222      7.2   929.0    0.00       0    91.9
 262   22:00   83.3    17    4.3   231      6.9   929.0    0.00       0    91.8
 262   22:10   83.2    18    3.0   222      4.6   929.1    0.00       0    91.7
 262   22:20   83.0    18    3.2   223      5.5   929.1    0.00       0    91.6
 262   22:30   82.8    18    2.6   216      4.3   929.1    0.00       0    91.6
 262   22:40   83.0    18    3.1   225      4.9   929.0    0.00       0    91.5
 262   22:50   83.3    18    3.5   235      5.3   929.1    0.00       0    91.4
 262   23:00   83.4    18    3.8   236      6.0   929.1    0.00       0    91.3
 262   23:10   83.0    18    3.0   216      4.2   929.2    0.00       0    91.2
 262   23:20   82.5    19    2.9   214      4.7   929.3    0.00       0    91.1
 262   23:30   82.5    19    3.2   220      4.7   929.3    0.00       0    91.0
 262   23:40   82.0    19    2.5   212      3.4   929.2    0.00       0    90.9
 262   23:50   81.1    20    1.8   195      2.9   929.3    0.00       0    90.8
 263    0:00   80.3    21    2.5   217      3.3   929.3    0.00       0    90.8
 263    0:10   80.2    21    2.2   228      3.1   929.4    0.00       0    90.6
 263    0:20   79.7    22    2.8   230      3.7   929.4    0.00       0    90.6
 263    0:30   79.4    22    3.2   223      4.5   929.3    0.00       0    90.5
 263    0:40   79.1    23    3.5   219      4.3   929.3    0.00       0    90.4
 263    0:50   79.5    22    2.5   206      3.8   929.3    0.00       0    90.3
 263    1:00   79.7    22    3.0   211      3.9   929.3    0.00       0    90.2
 263    1:10   79.6    22    2.4   208      3.5   929.2    0.00       0    90.1
 263    1:20   78.8    23    1.7   203      3.1   929.2    0.00       0    90.1
 263    1:30   78.9    23    2.7   219      3.7   929.2    0.00       0    90.0
 263    1:40   79.2    23    2.5   215      3.2   929.1    0.00       0    89.9
 263    1:50   78.7    24    2.5   212      3.1   929.1    0.00       0    89.8
 263    2:00   78.2    24    3.1   211      4.2   929.1    0.00       0    89.7
 263    2:10   77.7    25    2.5   220      3.4   929.1    0.00       0    89.7
 263    2:20   77.9    25    2.5   216      3.4   929.0    0.00       0    89.6
 263    2:30   78.0    25    2.6   224      3.3   929.0    0.00       0    89.5
 263    2:40   77.5    26    2.1   210      2.9   929.1    0.00       0    89.4
 263    2:50   77.5    26    2.8   212      3.7   929.0    0.00       0    89.3
 263    3:00   77.8    26    2.8   218      3.9   929.0    0.00       0    89.3
 263    3:10   78.0    26    2.9   222      4.0   929.0    0.00       0    89.2
 263    3:20   78.0    26    2.7   230      4.2   929.1    0.00       0    89.1
 263    3:30   77.5    26    2.3   244      3.1   929.1    0.00       0    89.0
 263    3:40   77.4    26    2.5   214      3.4   929.2    0.00       0    89.0
 263    3:50   77.5    26    2.0   214      2.8   929.2    0.00       0    88.9
 263    4:00   78.0    26    2.8   224      3.8   929.3    0.00       0    88.8
 263    4:10   78.0    26    2.2   213      3.3   929.4    0.00       0    88.8

Return to Boulder City, Nevada graphs page.


Western Regional Climate Center,wrcc@dri.edu